sensor_id;sensor_type;location;lat;lon;timestamp;pressure;altitude;pressure_sealevel;temperature;humidity
49689;BME280;70518;51.400;7.428;2023-08-07T00:01:25;158204.25;;;16.48;100.00
49689;BME280;70518;51.400;7.428;2023-08-07T00:03:50;158287.19;;;16.81;100.00
49689;BME280;70518;51.400;7.428;2023-08-07T00:06:16;158401.19;;;17.25;100.00
49689;BME280;70518;51.400;7.428;2023-08-07T00:08:41;158326.03;;;16.96;100.00
49689;BME280;70518;51.400;7.428;2023-08-07T00:11:07;158284.63;;;16.80;100.00
49689;BME280;70518;51.400;7.428;2023-08-07T00:13:33;158381.72;;;17.17;100.00
49689;BME280;70518;51.400;7.428;2023-08-07T00:15:58;158121.41;;;16.16;100.00
49689;BME280;70518;51.400;7.428;2023-08-07T00:18:23;158278.16;;;16.77;100.00
49689;BME280;70518;51.400;7.428;2023-08-07T00:20:49;158284.63;;;16.80;100.00
49689;BME280;70518;51.400;7.428;2023-08-07T00:23:14;158351.94;;;17.06;100.00
49689;BME280;70518;51.400;7.428;2023-08-07T00:25:39;158326.03;;;16.96;100.00
49689;BME280;70518;51.400;7.428;2023-08-07T00:28:05;158380.44;;;17.17;100.00
49689;BME280;70518;51.400;7.428;2023-08-07T00:30:31;158363.59;;;17.10;100.00
49689;BME280;70518;51.400;7.428;2023-08-07T00:32:56;158375.28;;;17.15;100.00
49689;BME280;70518;51.400;7.428;2023-08-07T00:35:21;158415.44;;;17.31;100.00
49689;BME280;70518;51.400;7.428;2023-08-07T00:37:47;158370.09;;;17.13;100.00
49689;BME280;70518;51.400;7.428;2023-08-07T00:40:12;158340.31;;;17.01;100.00
49689;BME280;70518;51.400;7.428;2023-08-07T00:42:37;158373.97;;;17.14;100.00
49689;BME280;70518;51.400;7.428;2023-08-07T00:45:03;158353.25;;;17.06;100.00
49689;BME280;70518;51.400;7.428;2023-08-07T00:47:28;158346.78;;;17.04;100.00
49689;BME280;70518;51.400;7.428;2023-08-07T00:49:55;158363.59;;;17.10;100.00
49689;BME280;70518;51.400;7.428;2023-08-07T00:52:21;158366.19;;;17.11;100.00
49689;BME280;70518;51.400;7.428;2023-08-07T00:54:46;158284.63;;;16.80;100.00
49689;BME280;70518;51.400;7.428;2023-08-07T00:57:12;158313.09;;;16.91;100.00
49689;BME280;70518;51.400;7.428;2023-08-07T00:59:42;158319.56;;;16.93;100.00
49689;BME280;70518;51.400;7.428;2023-08-07T01:02:09;158329.94;;;16.97;100.00
49689;BME280;70518;51.400;7.428;2023-08-07T01:04:34;158292.38;;;16.83;100.00
49689;BME280;70518;51.400;7.428;2023-08-07T01:07:00;158284.63;;;16.80;100.00
49689;BME280;70518;51.400;7.428;2023-08-07T01:09:26;158381.72;;;17.17;100.00
49689;BME280;70518;51.400;7.428;2023-08-07T01:12:15;158311.78;;;16.90;100.00
49689;BME280;70518;51.400;7.428;2023-08-07T01:14:49;158332.56;;;16.98;100.00
49689;BME280;70518;51.400;7.428;2023-08-07T01:17:17;158340.31;;;17.01;100.00
49689;BME280;70518;51.400;7.428;2023-08-07T01:19:45;157995.91;;;15.67;100.00
49689;BME280;70518;51.400;7.428;2023-08-07T01:22:11;157893.63;;;15.27;100.00
49689;BME280;70518;51.400;7.428;2023-08-07T01:24:37;157887.16;;;15.25;100.00
49689;BME280;70518;51.400;7.428;2023-08-07T01:27:41;157909.16;;;15.33;100.00
49689;BME280;70518;51.400;7.428;2023-08-07T01:33:10;157906.53;;;15.32;100.00
49689;BME280;70518;51.400;7.428;2023-08-07T01:35:45;158108.50;;;16.11;100.00
49689;BME280;70518;51.400;7.428;2023-08-07T01:38:13;158173.19;;;16.36;100.00
49689;BME280;70518;51.400;7.428;2023-08-07T01:40:40;158134.41;;;16.21;100.00
49689;BME280;70518;51.400;7.428;2023-08-07T01:43:07;158139.56;;;16.23;100.00
49689;BME280;70518;51.400;7.428;2023-08-07T01:45:33;158113.66;;;16.13;100.00
49689;BME280;70518;51.400;7.428;2023-08-07T01:47:59;158169.31;;;16.35;100.00
49689;BME280;70518;51.400;7.428;2023-08-07T01:50:24;158206.88;;;16.49;100.00
49689;BME280;70518;51.400;7.428;2023-08-07T01:52:50;158193.94;;;16.44;100.00
49689;BME280;70518;51.400;7.428;2023-08-07T01:55:17;158133.09;;;16.21;100.00
49689;BME280;70518;51.400;7.428;2023-08-07T01:57:42;158149.94;;;16.27;100.00
49689;BME280;70518;51.400;7.428;2023-08-07T02:00:08;158146.03;;;16.26;100.00
49689;BME280;70518;51.400;7.428;2023-08-07T02:02:35;158170.63;;;16.35;100.00
49689;BME280;70518;51.400;7.428;2023-08-07T02:05:00;158201.72;;;16.47;100.00
49689;BME280;70518;51.400;7.428;2023-08-07T02:07:25;158166.72;;;16.34;100.00
49689;BME280;70518;51.400;7.428;2023-08-07T02:09:51;158161.56;;;16.32;100.00
49689;BME280;70518;51.400;7.428;2023-08-07T02:12:16;158155.09;;;16.29;100.00
49689;BME280;70518;51.400;7.428;2023-08-07T02:14:41;158168.03;;;16.34;100.00
49689;BME280;70518;51.400;7.428;2023-08-07T02:17:06;158203.00;;;16.48;100.00
49689;BME280;70518;51.400;7.428;2023-08-07T02:19:32;158205.56;;;16.49;100.00
49689;BME280;70518;51.400;7.428;2023-08-07T02:21:57;158253.53;;;16.67;100.00
49689;BME280;70518;51.400;7.428;2023-08-07T02:24:23;158236.69;;;16.61;100.00
49689;BME280;70518;51.400;7.428;2023-08-07T02:26:48;158221.16;;;16.55;100.00
49689;BME280;70518;51.400;7.428;2023-08-07T02:29:13;158247.06;;;16.65;100.00
49689;BME280;70518;51.400;7.428;2023-08-07T02:31:38;158284.63;;;16.80;100.00
49689;BME280;70518;51.400;7.428;2023-08-07T02:34:04;158267.78;;;16.73;100.00
49689;BME280;70518;51.400;7.428;2023-08-07T02:36:29;158113.66;;;16.13;100.00
49689;BME280;70518;51.400;7.428;2023-08-07T02:38:54;158094.25;;;16.05;100.00
49689;BME280;70518;51.400;7.428;2023-08-07T02:41:19;158135.66;;;16.22;100.00
49689;BME280;70518;51.400;7.428;2023-08-07T02:43:45;157985.53;;;15.63;100.00
49689;BME280;70518;51.400;7.428;2023-08-07T02:46:10;157840.59;;;15.07;100.00
49689;BME280;70518;51.400;7.428;2023-08-07T02:48:35;157827.66;;;15.01;100.00
49689;BME280;70518;51.400;7.428;2023-08-07T02:51:01;157835.44;;;15.05;100.00
49689;BME280;70518;51.400;7.428;2023-08-07T02:53:26;157852.25;;;15.11;100.00
49689;BME280;70518;51.400;7.428;2023-08-07T02:55:51;158054.13;;;15.90;100.00
49689;BME280;70518;51.400;7.428;2023-08-07T02:58:16;158015.28;;;15.75;100.00
49689;BME280;70518;51.400;7.428;2023-08-07T03:00:42;158019.22;;;15.76;100.00
49689;BME280;70518;51.400;7.428;2023-08-07T03:03:08;157938.91;;;15.45;100.00
49689;BME280;70518;51.400;7.428;2023-08-07T03:05:33;157935.03;;;15.43;100.00
49689;BME280;70518;51.400;7.428;2023-08-07T03:07:59;157957.09;;;15.52;100.00
49689;BME280;70518;51.400;7.428;2023-08-07T03:10:24;158007.53;;;15.72;100.00
49689;BME280;70518;51.400;7.428;2023-08-07T03:12:49;157942.81;;;15.46;100.00
49689;BME280;70518;51.400;7.428;2023-08-07T03:15:15;157935.03;;;15.43;100.00
49689;BME280;70518;51.400;7.428;2023-08-07T03:17:40;157945.41;;;15.47;100.00
49689;BME280;70518;51.400;7.428;2023-08-07T03:20:05;157967.41;;;15.56;100.00
49689;BME280;70518;51.400;7.428;2023-08-07T03:22:31;157973.91;;;15.59;100.00
49689;BME280;70518;51.400;7.428;2023-08-07T03:24:56;158019.22;;;15.76;100.00
49689;BME280;70518;51.400;7.428;2023-08-07T03:27:22;158140.88;;;16.24;100.00
49689;BME280;70518;51.400;7.428;2023-08-07T03:29:47;158026.97;;;15.79;100.00
49689;BME280;70518;51.400;7.428;2023-08-07T03:32:12;158025.66;;;15.79;100.00
49689;BME280;70518;51.400;7.428;2023-08-07T03:34:37;158092.97;;;16.05;100.00
49689;BME280;70518;51.400;7.428;2023-08-07T03:37:03;158083.88;;;16.01;100.00
49689;BME280;70518;51.400;7.428;2023-08-07T03:39:28;158111.09;;;16.12;100.00
49689;BME280;70518;51.400;7.428;2023-08-07T03:41:53;158120.13;;;16.16;100.00
49689;BME280;70518;51.400;7.428;2023-08-07T03:44:19;158109.78;;;16.11;100.00
49689;BME280;70518;51.400;7.428;2023-08-07T03:46:44;158136.94;;;16.22;100.00
49689;BME280;70518;51.400;7.428;2023-08-07T03:49:09;158076.13;;;15.98;100.00
49689;BME280;70518;51.400;7.428;2023-08-07T03:51:34;158068.34;;;15.95;100.00
49689;BME280;70518;51.400;7.428;2023-08-07T03:54:00;158102.03;;;16.08;100.00
49689;BME280;70518;51.400;7.428;2023-08-07T03:56:25;158037.28;;;15.83;100.00
49689;BME280;70518;51.400;7.428;2023-08-07T03:58:50;158056.72;;;15.91;100.00
49689;BME280;70518;51.400;7.428;2023-08-07T04:01:16;158070.97;;;15.96;100.00
49689;BME280;70518;51.400;7.428;2023-08-07T04:03:41;158080.03;;;16.00;100.00
49689;BME280;70518;51.400;7.428;2023-08-07T04:06:07;158051.53;;;15.89;100.00
49689;BME280;70518;51.400;7.428;2023-08-07T04:08:32;158100.72;;;16.08;100.00
49689;BME280;70518;51.400;7.428;2023-08-07T04:11:03;158108.50;;;16.11;100.00
49689;BME280;70518;51.400;7.428;2023-08-07T04:13:29;158004.97;;;15.71;100.00
49689;BME280;70518;51.400;7.428;2023-08-07T04:15:54;158086.50;;;16.02;100.00
49689;BME280;70518;51.400;7.428;2023-08-07T04:18:20;158041.19;;;15.85;100.00
49689;BME280;70518;51.400;7.428;2023-08-07T04:20:49;158032.13;;;15.81;100.00
49689;BME280;70518;51.400;7.428;2023-08-07T04:23:15;158052.81;;;15.89;100.00
49689;BME280;70518;51.400;7.428;2023-08-07T04:25:40;158025.66;;;15.79;100.00
49689;BME280;70518;51.400;7.428;2023-08-07T04:28:05;158109.78;;;16.11;100.00
49689;BME280;70518;51.400;7.428;2023-08-07T04:30:31;158169.31;;;16.35;100.00
49689;BME280;70518;51.400;7.428;2023-08-07T04:32:56;158161.56;;;16.32;100.00
49689;BME280;70518;51.400;7.428;2023-08-07T04:35:21;158144.72;;;16.25;100.00
49689;BME280;70518;51.400;7.428;2023-08-07T04:37:46;158149.94;;;16.27;100.00
49689;BME280;70518;51.400;7.428;2023-08-07T04:40:12;158129.19;;;16.19;100.00
49689;BME280;70518;51.400;7.428;2023-08-07T04:42:37;158158.97;;;16.31;100.00
49689;BME280;70518;51.400;7.428;2023-08-07T04:45:03;158164.16;;;16.33;100.00
49689;BME280;70518;51.400;7.428;2023-08-07T04:47:28;158148.63;;;16.27;100.00
49689;BME280;70518;51.400;7.428;2023-08-07T04:49:54;158109.78;;;16.11;100.00
49689;BME280;70518;51.400;7.428;2023-08-07T04:52:19;158133.09;;;16.21;100.00
49689;BME280;70518;51.400;7.428;2023-08-07T04:54:44;158091.66;;;16.04;100.00
49689;BME280;70518;51.400;7.428;2023-08-07T04:57:10;158067.06;;;15.95;100.00
49689;BME280;70518;51.400;7.428;2023-08-07T04:59:35;158140.88;;;16.24;100.00
49689;BME280;70518;51.400;7.428;2023-08-07T05:02:01;158191.34;;;16.43;100.00
49689;BME280;70518;51.400;7.428;2023-08-07T05:04:26;158170.63;;;16.35;100.00
49689;BME280;70518;51.400;7.428;2023-08-07T05:06:51;158133.09;;;16.21;100.00
49689;BME280;70518;51.400;7.428;2023-08-07T05:09:16;158160.25;;;16.31;100.00
49689;BME280;70518;51.400;7.428;2023-08-07T05:11:42;158152.50;;;16.28;100.00
49689;BME280;70518;51.400;7.428;2023-08-07T05:14:07;158140.88;;;16.24;100.00
49689;BME280;70518;51.400;7.428;2023-08-07T05:16:32;158152.50;;;16.28;100.00
49689;BME280;70518;51.400;7.428;2023-08-07T05:18:58;158068.34;;;15.95;100.00
49689;BME280;70518;51.400;7.428;2023-08-07T05:21:23;158029.53;;;15.80;100.00
49689;BME280;70518;51.400;7.428;2023-08-07T05:23:48;158042.50;;;15.85;100.00
49689;BME280;70518;51.400;7.428;2023-08-07T05:26:18;158116.25;;;16.14;100.00
49689;BME280;70518;51.400;7.428;2023-08-07T05:28:43;158175.78;;;16.37;100.00
49689;BME280;70518;51.400;7.428;2023-08-07T05:31:08;158012.75;;;15.74;100.00
49689;BME280;70518;51.400;7.428;2023-08-07T05:33:34;158086.50;;;16.02;100.00
49689;BME280;70518;51.400;7.428;2023-08-07T05:35:59;158070.97;;;15.96;100.00
49689;BME280;70518;51.400;7.428;2023-08-07T05:38:24;158142.16;;;16.24;100.00
49689;BME280;70518;51.400;7.428;2023-08-07T05:40:49;158104.59;;;16.09;100.00
49689;BME280;70518;51.400;7.428;2023-08-07T05:43:16;158129.19;;;16.19;100.00
49689;BME280;70518;51.400;7.428;2023-08-07T05:45:42;158098.13;;;16.07;100.00
49689;BME280;70518;51.400;7.428;2023-08-07T05:48:09;158085.19;;;16.02;100.00
49689;BME280;70518;51.400;7.428;2023-08-07T05:50:35;158006.22;;;15.71;100.00
49689;BME280;70518;51.400;7.428;2023-08-07T05:53:00;157967.41;;;15.56;100.00
49689;BME280;70518;51.400;7.428;2023-08-07T05:55:25;158003.69;;;15.70;100.00
49689;BME280;70518;51.400;7.428;2023-08-07T05:57:51;158021.75;;;15.77;100.00
49689;BME280;70518;51.400;7.428;2023-08-07T06:00:16;158054.13;;;15.90;100.00
49689;BME280;70518;51.400;7.428;2023-08-07T06:02:44;158083.88;;;16.01;100.00
49689;BME280;70518;51.400;7.428;2023-08-07T06:05:09;158096.81;;;16.06;100.00
49689;BME280;70518;51.400;7.428;2023-08-07T06:07:37;158011.44;;;15.73;100.00
49689;BME280;70518;51.400;7.428;2023-08-07T06:10:03;158082.59;;;16.01;100.00
49689;BME280;70518;51.400;7.428;2023-08-07T06:12:28;158131.78;;;16.20;100.00
49689;BME280;70518;51.400;7.428;2023-08-07T06:14:53;158089.03;;;16.03;100.00
49689;BME280;70518;51.400;7.428;2023-08-07T06:17:19;158046.38;;;15.87;100.00
49689;BME280;70518;51.400;7.428;2023-08-07T06:19:44;158024.38;;;15.78;100.00
49689;BME280;70518;51.400;7.428;2023-08-07T06:22:09;157994.59;;;15.67;100.00
49689;BME280;70518;51.400;7.428;2023-08-07T06:24:34;158032.13;;;15.81;100.00
49689;BME280;70518;51.400;7.428;2023-08-07T06:27:01;157967.41;;;15.56;100.00
49689;BME280;70518;51.400;7.428;2023-08-07T06:29:27;157986.84;;;15.64;100.00
49689;BME280;70518;51.400;7.428;2023-08-07T06:31:52;157979.06;;;15.61;100.00
49689;BME280;70518;51.400;7.428;2023-08-07T06:34:17;157976.47;;;15.60;100.00
49689;BME280;70518;51.400;7.428;2023-08-07T06:36:42;157922.06;;;15.38;100.00
49689;BME280;70518;51.400;7.428;2023-08-07T06:39:08;157957.09;;;15.52;100.00
49689;BME280;70518;51.400;7.428;2023-08-07T06:41:33;158011.44;;;15.73;100.00
49689;BME280;70518;51.400;7.428;2023-08-07T06:43:58;157973.91;;;15.59;100.00
49689;BME280;70518;51.400;7.428;2023-08-07T06:46:24;157964.84;;;15.55;100.00
49689;BME280;70518;51.400;7.428;2023-08-07T06:48:51;157902.69;;;15.31;100.00
49689;BME280;70518;51.400;7.428;2023-08-07T06:51:17;157972.63;;;15.58;100.00
49689;BME280;70518;51.400;7.428;2023-08-07T06:53:42;157994.59;;;15.67;100.00
49689;BME280;70518;51.400;7.428;2023-08-07T06:56:07;158007.53;;;15.72;100.00
49689;BME280;70518;51.400;7.428;2023-08-07T06:58:33;158029.53;;;15.80;100.00
49689;BME280;70518;51.400;7.428;2023-08-07T07:00:58;158039.91;;;15.84;100.00
49689;BME280;70518;51.400;7.428;2023-08-07T07:03:23;158054.13;;;15.90;100.00
49689;BME280;70518;51.400;7.428;2023-08-07T07:05:49;158095.56;;;16.06;100.00
49689;BME280;70518;51.400;7.428;2023-08-07T07:08:15;158083.88;;;16.01;100.00
49689;BME280;70518;51.400;7.428;2023-08-07T07:10:40;158099.41;;;16.07;100.00
49689;BME280;70518;51.400;7.428;2023-08-07T07:13:05;158130.50;;;16.20;100.00
49689;BME280;70518;51.400;7.428;2023-08-07T07:15:33;158109.78;;;16.11;100.00
49689;BME280;70518;51.400;7.428;2023-08-07T07:17:58;158127.88;;;16.19;100.00
49689;BME280;70518;51.400;7.428;2023-08-07T07:20:24;157976.47;;;15.60;100.00
49689;BME280;70518;51.400;7.428;2023-08-07T07:22:50;158131.78;;;16.20;100.00
49689;BME280;70518;51.400;7.428;2023-08-07T07:25:15;158064.50;;;15.94;100.00
49689;BME280;70518;51.400;7.428;2023-08-07T07:27:41;158082.59;;;16.01;100.00
49689;BME280;70518;51.400;7.428;2023-08-07T07:30:06;158098.13;;;16.07;100.00
49689;BME280;70518;51.400;7.428;2023-08-07T07:32:32;158081.34;;;16.00;100.00
49689;BME280;70518;51.400;7.428;2023-08-07T07:34:57;158135.66;;;16.22;100.00
49689;BME280;70518;51.400;7.428;2023-08-07T07:37:23;158094.25;;;16.05;100.00
49689;BME280;70518;51.400;7.428;2023-08-07T07:39:48;158117.56;;;16.15;100.00
49689;BME280;70518;51.400;7.428;2023-08-07T07:42:13;158118.88;;;16.15;100.00
49689;BME280;70518;51.400;7.428;2023-08-07T07:44:38;158144.72;;;16.25;100.00
49689;BME280;70518;51.400;7.428;2023-08-07T07:47:05;158179.72;;;16.39;100.00
49689;BME280;70518;51.400;7.428;2023-08-07T07:49:32;158158.97;;;16.31;100.00
49689;BME280;70518;51.400;7.428;2023-08-07T07:51:58;158184.88;;;16.41;100.00
49689;BME280;70518;51.400;7.428;2023-08-07T07:54:23;158146.03;;;16.26;100.00
49689;BME280;70518;51.400;7.428;2023-08-07T07:56:48;158186.16;;;16.41;100.00
49689;BME280;70518;51.400;7.428;2023-08-07T07:59:13;158183.56;;;16.40;100.00
49689;BME280;70518;51.400;7.428;2023-08-07T08:01:39;158143.41;;;16.25;100.00
49689;BME280;70518;51.400;7.428;2023-08-07T08:04:04;158197.81;;;16.46;100.00
49689;BME280;70518;51.400;7.428;2023-08-07T08:06:30;158177.09;;;16.38;100.00
49689;BME280;70518;51.400;7.428;2023-08-07T08:08:56;158130.50;;;16.20;100.00
49689;BME280;70518;51.400;7.428;2023-08-07T08:11:21;158076.13;;;15.98;100.00
49689;BME280;70518;51.400;7.428;2023-08-07T08:13:46;158195.25;;;16.45;100.00
49689;BME280;70518;51.400;7.428;2023-08-07T08:16:12;158091.66;;;16.04;100.00
49689;BME280;70518;51.400;7.428;2023-08-07T08:18:37;158175.78;;;16.37;100.00
49689;BME280;70518;51.400;7.428;2023-08-07T08:21:02;158190.03;;;16.43;100.00
49689;BME280;70518;51.400;7.428;2023-08-07T08:23:27;158153.78;;;16.29;100.00
49689;BME280;70518;51.400;7.428;2023-08-07T08:25:53;158200.41;;;16.47;100.00
49689;BME280;70518;51.400;7.428;2023-08-07T08:28:18;158213.34;;;16.52;100.00
49689;BME280;70518;51.400;7.428;2023-08-07T08:30:43;158206.88;;;16.49;100.00
49689;BME280;70518;51.400;7.428;2023-08-07T08:33:09;158247.06;;;16.65;100.00
49689;BME280;70518;51.400;7.428;2023-08-07T08:35:37;158293.69;;;16.83;100.00
49689;BME280;70518;51.400;7.428;2023-08-07T08:38:02;158208.19;;;16.50;100.00
49689;BME280;70518;51.400;7.428;2023-08-07T08:40:28;158262.59;;;16.71;100.00
49689;BME280;70518;51.400;7.428;2023-08-07T08:42:55;158336.41;;;17.00;100.00
49689;BME280;70518;51.400;7.428;2023-08-07T08:45:23;158433.53;;;17.38;100.00
49689;BME280;70518;51.400;7.428;2023-08-07T08:47:51;158257.41;;;16.69;100.00
49689;BME280;70518;51.400;7.428;2023-08-07T08:50:20;158384.34;;;17.18;100.00
49689;BME280;70518;51.400;7.428;2023-08-07T08:52:46;158429.69;;;17.36;100.00
49689;BME280;70518;51.400;7.428;2023-08-07T08:55:13;158375.28;;;17.15;100.00
49689;BME280;70518;51.400;7.428;2023-08-07T08:57:39;158390.81;;;17.21;100.00
49689;BME280;70518;51.400;7.428;2023-08-07T09:00:06;158291.09;;;16.82;100.00
49689;BME280;70518;51.400;7.428;2023-08-07T09:02:44;158392.13;;;17.21;100.00
49689;BME280;70518;51.400;7.428;2023-08-07T09:05:09;158454.31;;;17.46;100.00
49689;BME280;70518;51.400;7.428;2023-08-07T09:07:35;158107.19;;;16.10;100.00
49689;BME280;70518;51.400;7.428;2023-08-07T09:10:02;158105.88;;;16.10;100.00
49689;BME280;70518;51.400;7.428;2023-08-07T09:12:29;158074.81;;;15.98;100.00
49689;BME280;70518;51.400;7.428;2023-08-07T09:14:58;158063.19;;;15.93;100.00
49689;BME280;70518;51.400;7.428;2023-08-07T09:17:24;158037.28;;;15.83;100.00
49689;BME280;70518;51.400;7.428;2023-08-07T09:19:52;158012.75;;;15.74;100.00
49689;BME280;70518;51.400;7.428;2023-08-07T09:22:18;158039.91;;;15.84;100.00
49689;BME280;70518;51.400;7.428;2023-08-07T09:24:44;158065.81;;;15.94;100.00
49689;BME280;70518;51.400;7.428;2023-08-07T09:27:09;158055.44;;;15.90;100.00
49689;BME280;70518;51.400;7.428;2023-08-07T09:29:35;158105.88;;;16.10;100.00
49689;BME280;70518;51.400;7.428;2023-08-07T09:32:07;158162.88;;;16.32;100.00
49689;BME280;70518;51.400;7.428;2023-08-07T09:34:33;158146.03;;;16.26;100.00
49689;BME280;70518;51.400;7.428;2023-08-07T09:36:58;158113.66;;;16.13;100.00
49689;BME280;70518;51.400;7.428;2023-08-07T09:39:23;158114.97;;;16.13;100.00
49689;BME280;70518;51.400;7.428;2023-08-07T09:41:52;158152.50;;;16.28;100.00
49689;BME280;70518;51.400;7.428;2023-08-07T09:44:17;158112.34;;;16.12;100.00
49689;BME280;70518;51.400;7.428;2023-08-07T09:46:43;158133.09;;;16.21;100.00
49689;BME280;70518;51.400;7.428;2023-08-07T09:49:09;158226.31;;;16.57;100.00
49689;BME280;70518;51.400;7.428;2023-08-07T09:51:45;158226.31;;;16.57;100.00
49689;BME280;70518;51.400;7.428;2023-08-07T09:54:11;158215.94;;;16.53;100.00
49689;BME280;70518;51.400;7.428;2023-08-07T09:56:37;158232.84;;;16.59;100.00
49689;BME280;70518;51.400;7.428;2023-08-07T09:59:03;158256.16;;;16.69;100.00
49689;BME280;70518;51.400;7.428;2023-08-07T10:01:29;158272.94;;;16.75;100.00
49689;BME280;70518;51.400;7.428;2023-08-07T10:03:54;158283.31;;;16.79;100.00
49689;BME280;70518;51.400;7.428;2023-08-07T10:06:20;158262.59;;;16.71;100.00
49689;BME280;70518;51.400;7.428;2023-08-07T10:08:45;158269.06;;;16.74;100.00
49689;BME280;70518;51.400;7.428;2023-08-07T10:11:11;158275.53;;;16.76;100.00
49689;BME280;70518;51.400;7.428;2023-08-07T10:13:37;158250.94;;;16.66;100.00
49689;BME280;70518;51.400;7.428;2023-08-07T10:16:03;158249.63;;;16.66;100.00
49689;BME280;70518;51.400;7.428;2023-08-07T10:18:29;158267.78;;;16.73;100.00
49689;BME280;70518;51.400;7.428;2023-08-07T10:20:55;158285.91;;;16.80;100.00
49689;BME280;70518;51.400;7.428;2023-08-07T10:23:23;158283.31;;;16.79;100.00
49689;BME280;70518;51.400;7.428;2023-08-07T10:25:50;158267.78;;;16.73;100.00
49689;BME280;70518;51.400;7.428;2023-08-07T10:28:17;158196.50;;;16.45;100.00
49689;BME280;70518;51.400;7.428;2023-08-07T10:30:44;158238.00;;;16.61;100.00
49689;BME280;70518;51.400;7.428;2023-08-07T10:33:10;158236.69;;;16.61;100.00
49689;BME280;70518;51.400;7.428;2023-08-07T10:35:37;158217.25;;;16.53;100.00
49689;BME280;70518;51.400;7.428;2023-08-07T10:38:06;158284.63;;;16.80;100.00
49689;BME280;70518;51.400;7.428;2023-08-07T10:40:32;158309.22;;;16.89;100.00
49689;BME280;70518;51.400;7.428;2023-08-07T10:42:59;158326.03;;;16.96;100.00
49689;BME280;70518;51.400;7.428;2023-08-07T10:45:26;158381.72;;;17.17;100.00
49689;BME280;70518;51.400;7.428;2023-08-07T10:48:01;158254.84;;;16.68;100.00
49689;BME280;70518;51.400;7.428;2023-08-07T10:50:46;158291.09;;;16.82;100.00
49689;BME280;70518;51.400;7.428;2023-08-07T10:53:37;158337.72;;;17.00;100.00
49689;BME280;70518;51.400;7.428;2023-08-07T10:56:04;158322.16;;;16.94;100.00
49689;BME280;70518;51.400;7.428;2023-08-07T10:58:34;158289.78;;;16.82;100.00
49689;BME280;70518;51.400;7.428;2023-08-07T11:03:57;158490.63;;;17.60;100.00
49689;BME280;70518;51.400;7.428;2023-08-07T11:06:24;158539.81;;;17.79;100.00
49689;BME280;70518;51.400;7.428;2023-08-07T11:08:51;158497.09;;;17.62;100.00
49689;BME280;70518;51.400;7.428;2023-08-07T11:11:17;158534.66;;;17.77;100.00
49689;BME280;70518;51.400;7.428;2023-08-07T11:13:42;158498.38;;;17.63;100.00
49689;BME280;70518;51.400;7.428;2023-08-07T11:16:08;158498.38;;;17.63;100.00
49689;BME280;70518;51.400;7.428;2023-08-07T11:18:33;158532.03;;;17.76;100.00
49689;BME280;70518;51.400;7.428;2023-08-07T11:21:01;158528.19;;;17.74;100.00
49689;BME280;70518;51.400;7.428;2023-08-07T11:23:27;158533.34;;;17.76;100.00
49689;BME280;70518;51.400;7.428;2023-08-07T11:25:53;158494.47;;;17.61;100.00
49689;BME280;70518;51.400;7.428;2023-08-07T11:28:22;158524.28;;;17.73;100.00
49689;BME280;70518;51.400;7.428;2023-08-07T11:30:52;158504.84;;;17.65;100.00
49689;BME280;70518;51.400;7.428;2023-08-07T11:33:18;158537.25;;;17.78;100.00
49689;BME280;70518;51.400;7.428;2023-08-07T11:35:45;158556.69;;;17.86;100.00
49689;BME280;70518;51.400;7.428;2023-08-07T11:38:10;158500.94;;;17.64;100.00
49689;BME280;70518;51.400;7.428;2023-08-07T11:40:36;158442.63;;;17.41;100.00
49689;BME280;70518;51.400;7.428;2023-08-07T11:43:01;158456.84;;;17.47;100.00
49689;BME280;70518;51.400;7.428;2023-08-07T11:45:27;158573.53;;;17.92;100.00
49689;BME280;70518;51.400;7.428;2023-08-07T11:47:52;158554.06;;;17.85;100.00
49689;BME280;70518;51.400;7.428;2023-08-07T11:50:21;158630.53;;;18.14;100.00
49689;BME280;70518;51.400;7.428;2023-08-07T11:52:46;158563.16;;;17.88;100.00
49689;BME280;70518;51.400;7.428;2023-08-07T11:55:14;158626.66;;;18.13;100.00
49689;BME280;70518;51.400;7.428;2023-08-07T11:57:39;158638.31;;;18.17;100.00
49689;BME280;70518;51.400;7.428;2023-08-07T12:00:08;158617.56;;;18.09;100.00
49689;BME280;70518;51.400;7.428;2023-08-07T12:02:43;158497.09;;;17.62;100.00
49689;BME280;70518;51.400;7.428;2023-08-07T12:05:09;158473.72;;;17.53;100.00
49689;BME280;70518;51.400;7.428;2023-08-07T12:07:37;158456.84;;;17.47;100.00
49689;BME280;70518;51.400;7.428;2023-08-07T12:10:11;158449.09;;;17.44;100.00
49689;BME280;70518;51.400;7.428;2023-08-07T12:12:37;158508.72;;;17.67;100.00
49689;BME280;70518;51.400;7.428;2023-08-07T12:15:06;158533.34;;;17.76;100.00
49689;BME280;70518;51.400;7.428;2023-08-07T12:17:31;158674.63;;;18.31;100.00
49689;BME280;70518;51.400;7.428;2023-08-07T12:19:58;158734.28;;;18.55;100.00
49689;BME280;70518;51.400;7.428;2023-08-07T12:22:23;158799.09;;;18.80;100.00
49689;BME280;70518;51.400;7.428;2023-08-07T12:24:48;158853.56;;;19.01;100.00
49689;BME280;70518;51.400;7.428;2023-08-07T12:27:13;158910.63;;;19.23;100.00
49689;BME280;70518;51.400;7.428;2023-08-07T12:29:39;158799.09;;;18.80;100.00
49689;BME280;70518;51.400;7.428;2023-08-07T12:32:04;158797.84;;;18.79;100.00
49689;BME280;70518;51.400;7.428;2023-08-07T12:34:30;158828.91;;;18.92;100.00
49689;BME280;70518;51.400;7.428;2023-08-07T12:36:55;158838.00;;;18.95;100.00
49689;BME280;70518;51.400;7.428;2023-08-07T12:39:21;158875.59;;;19.10;100.00
49689;BME280;70518;51.400;7.428;2023-08-07T12:41:46;158884.69;;;19.13;100.00